createdAt,value
2023-03-17T00:00:16.568Z,97722.34
2023-03-17T00:02:45.765Z,97729.13
2023-03-17T00:05:25.662Z,97718.97
2023-03-17T00:07:52.831Z,97716.56
2023-03-17T00:10:22.222Z,97709.59
2023-03-17T00:12:50.264Z,97712.63
2023-03-17T00:15:17.783Z,97707.56
2023-03-17T00:17:45.031Z,97706.56
2023-03-17T00:20:14.663Z,97694.75
2023-03-17T00:22:41.141Z,97695.03
2023-03-17T00:25:18.927Z,97699.59
2023-03-17T00:27:45.423Z,97710.28
2023-03-17T00:30:12.270Z,97714.56
2023-03-17T00:32:39.659Z,97701.69
2023-03-17T00:35:15.002Z,97715.81
2023-03-17T00:37:41.964Z,97719.19
2023-03-17T00:40:20.312Z,97690.66
2023-03-17T00:42:47.002Z,97687.59
2023-03-17T00:45:13.533Z,97697.66
2023-03-17T00:47:40.441Z,97687.91
2023-03-17T00:50:10.116Z,97689.66
2023-03-17T00:52:36.587Z,97695.28
2023-03-17T00:55:03.482Z,97696.09
2023-03-17T00:57:30.292Z,97713.31
2023-03-17T00:59:56.826Z,97708.94
2023-03-17T01:02:24.256Z,97710.75
2023-03-17T01:04:59.820Z,97706.38
2023-03-17T01:07:30.446Z,97709.47
2023-03-17T01:09:57.070Z,97697.19
2023-03-17T01:12:23.628Z,97693.63
2023-03-17T01:14:50.076Z,97682.28
2023-03-17T01:17:18.167Z,97682.59
2023-03-17T01:19:46.085Z,97683.56
2023-03-17T01:22:13.492Z,97679.66
2023-03-17T01:24:40.547Z,97679.19
2023-03-17T01:27:07.158Z,97674.63
2023-03-17T01:29:34.778Z,97684.97
2023-03-17T01:32:01.258Z,97691.16
2023-03-17T01:34:28.134Z,97687.84
2023-03-17T01:36:54.735Z,97676.56
2023-03-17T01:39:21.212Z,97670.94
2023-03-17T01:41:47.672Z,97676.91
2023-03-17T01:44:18.522Z,97669.38
2023-03-17T01:46:46.040Z,97668.91
2023-03-17T01:49:15.974Z,97663.00
2023-03-17T01:52:10.334Z,97661.50
2023-03-17T01:54:46.360Z,97665.47
2023-03-17T01:57:26.960Z,97665.13
2023-03-17T02:00:01.590Z,97657.31
2023-03-17T02:02:30.850Z,97675.94
2023-03-17T02:04:57.907Z,97668.66
2023-03-17T02:07:26.493Z,97673.97
2023-03-17T02:09:53.598Z,97683.78
2023-03-17T02:12:21.210Z,97693.75
2023-03-17T02:14:47.688Z,97684.22
2023-03-17T02:17:14.666Z,97671.31
2023-03-17T02:19:41.949Z,97673.69
2023-03-17T02:22:08.677Z,97688.72
2023-03-17T02:24:37.772Z,97664.66
2023-03-17T02:27:24.672Z,97653.97
2023-03-17T02:29:52.062Z,97647.81
2023-03-17T02:32:18.713Z,97647.66
2023-03-17T02:34:48.187Z,97655.34
2023-03-17T02:37:15.937Z,97657.06
2023-03-17T02:39:42.590Z,97666.06
2023-03-17T02:42:09.380Z,97664.31
2023-03-17T02:47:17.204Z,97658.00
2023-03-17T02:49:43.674Z,97655.25
2023-03-17T02:52:10.128Z,97655.84
2023-03-17T02:54:36.714Z,97653.09
2023-03-17T02:57:03.198Z,97654.78
2023-03-17T02:59:29.776Z,97656.38
2023-03-17T03:01:56.267Z,97667.75
2023-03-17T03:04:22.787Z,97679.78
2023-03-17T03:06:49.242Z,97682.28
2023-03-17T03:09:17.708Z,97687.91
2023-03-17T03:11:44.227Z,97681.25
2023-03-17T03:14:11.059Z,97681.78
2023-03-17T03:16:37.950Z,97681.06
2023-03-17T03:19:04.622Z,97686.78
2023-03-17T03:21:31.652Z,97679.00
2023-03-17T03:23:58.446Z,97681.28
2023-03-17T03:26:24.954Z,97688.91
2023-03-17T03:28:51.940Z,97682.28
2023-03-17T03:31:18.443Z,97676.75
2023-03-17T03:33:44.969Z,97684.53
2023-03-17T03:36:11.561Z,97678.84
2023-03-17T03:38:38.155Z,97684.69
2023-03-17T03:41:04.690Z,97684.34
2023-03-17T03:43:31.238Z,97667.69
2023-03-17T03:45:57.748Z,97667.78
2023-03-17T03:48:24.482Z,97658.44
2023-03-17T03:50:50.988Z,97664.22
2023-03-17T03:53:17.866Z,97663.75
2023-03-17T03:55:44.352Z,97651.72
2023-03-17T03:58:11.324Z,97645.41
2023-03-17T04:00:38.514Z,97643.81
2023-03-17T04:03:05.209Z,97635.44
2023-03-17T04:05:31.788Z,97626.38
2023-03-17T04:07:58.238Z,97640.31
2023-03-17T04:10:24.762Z,97620.31
2023-03-17T04:12:51.318Z,97629.25
2023-03-17T04:15:18.399Z,97630.25
2023-03-17T04:17:44.881Z,97635.22
2023-03-17T04:20:11.786Z,97634.41
2023-03-17T04:22:38.240Z,97627.22
2023-03-17T04:25:05.492Z,97620.31
2023-03-17T04:27:32.257Z,97626.88
2023-03-17T04:29:58.741Z,97620.44
2023-03-17T04:32:27.211Z,97633.34
2023-03-17T04:34:53.839Z,97632.34
2023-03-17T04:37:20.502Z,97635.75
2023-03-17T04:39:47.358Z,97634.81
2023-03-17T04:42:13.914Z,97616.28
2023-03-17T04:44:41.050Z,97619.72
2023-03-17T04:47:07.686Z,97611.31
2023-03-17T04:49:34.512Z,97616.88
2023-03-17T04:52:01.389Z,97617.22
2023-03-17T04:54:27.862Z,97617.34
2023-03-17T04:56:54.344Z,97612.31
2023-03-17T04:59:21.040Z,97619.28
2023-03-17T05:01:47.759Z,97619.91
2023-03-17T05:04:22.124Z,97612.25
2023-03-17T05:06:58.197Z,97604.69
2023-03-17T05:09:25.257Z,97599.78
2023-03-17T05:11:52.110Z,97586.22
2023-03-17T05:14:18.590Z,97609.84
2023-03-17T05:16:49.932Z,97607.81
2023-03-17T05:19:17.376Z,97611.16
2023-03-17T05:21:44.071Z,97607.88
2023-03-17T05:24:10.631Z,97603.13
2023-03-17T05:26:37.141Z,97591.84
2023-03-17T05:29:03.661Z,97606.00
2023-03-17T05:31:30.986Z,97595.06
2023-03-17T05:33:57.903Z,97602.41
2023-03-17T05:36:24.629Z,97589.44
2023-03-17T05:38:51.125Z,97591.06
2023-03-17T05:41:17.779Z,97606.47
2023-03-17T05:43:44.254Z,97606.47
2023-03-17T05:46:11.143Z,97613.59
2023-03-17T05:48:37.646Z,97605.69
2023-03-17T05:51:04.803Z,97607.44
2023-03-17T05:53:31.310Z,97606.81
2023-03-17T05:55:57.800Z,97599.16
2023-03-17T05:58:24.263Z,97601.78
2023-03-17T06:00:51.081Z,97601.50
2023-03-17T06:03:17.575Z,97610.38
2023-03-17T06:05:44.121Z,97592.06
2023-03-17T06:08:10.619Z,97593.09
2023-03-17T06:10:37.084Z,97603.53
2023-03-17T06:13:04.452Z,97589.78
2023-03-17T06:15:31.292Z,97585.59
2023-03-17T06:17:57.872Z,97579.22
2023-03-17T06:20:24.328Z,97576.69
2023-03-17T06:23:03.404Z,97577.28
2023-03-17T06:25:30.968Z,97579.38
2023-03-17T06:27:57.761Z,97586.25
2023-03-17T06:30:24.260Z,97581.63
2023-03-17T06:32:50.756Z,97592.75
2023-03-17T06:35:17.956Z,97583.00
2023-03-17T06:37:44.516Z,97577.84
2023-03-17T06:40:12.514Z,97578.44
2023-03-17T06:42:38.980Z,97577.28
2023-03-17T06:45:05.876Z,97585.88
2023-03-17T06:47:32.363Z,97583.50
2023-03-17T06:49:58.837Z,97592.59
2023-03-17T06:52:25.316Z,97586.47
2023-03-17T06:54:51.926Z,97587.97
2023-03-17T06:57:18.379Z,97572.03
2023-03-17T06:59:46.101Z,97576.31
2023-03-17T07:02:12.656Z,97585.38
2023-03-17T07:04:39.376Z,97576.53
2023-03-17T07:07:05.975Z,97586.41
2023-03-17T07:09:36.554Z,97593.06
2023-03-17T07:12:05.951Z,97581.56
2023-03-17T07:14:33.848Z,97586.88
2023-03-17T07:17:00.422Z,97575.94
2023-03-17T07:19:27.268Z,97578.47
2023-03-17T07:21:55.815Z,97580.88
2023-03-17T07:24:22.753Z,97578.69
2023-03-17T07:26:49.233Z,97586.28
2023-03-17T07:29:16.481Z,97582.13
2023-03-17T07:31:44.182Z,97583.25
2023-03-17T07:34:11.225Z,97579.00
2023-03-17T07:36:40.162Z,97583.00
2023-03-17T07:39:07.004Z,97589.78
2023-03-17T07:41:33.472Z,97584.38
2023-03-17T07:43:59.953Z,97591.63
2023-03-17T07:46:26.579Z,97577.25
2023-03-17T07:48:53.283Z,97564.59
2023-03-17T07:51:22.169Z,97570.06
2023-03-17T07:53:50.151Z,97558.72
2023-03-17T07:56:17.672Z,97565.13
2023-03-17T07:58:45.168Z,97566.13
2023-03-17T08:01:12.212Z,97559.09
2023-03-17T08:03:41.593Z,97556.53
2023-03-17T08:06:09.403Z,97553.78
2023-03-17T08:08:35.923Z,97553.91
2023-03-17T08:11:03.713Z,97544.28
2023-03-17T08:13:31.252Z,97548.13
2023-03-17T08:15:57.744Z,97555.44
2023-03-17T08:18:24.270Z,97551.84
2023-03-17T08:20:51.414Z,97540.66
2023-03-17T08:23:18.982Z,97539.03
2023-03-17T08:25:45.737Z,97544.50
2023-03-17T08:28:12.266Z,97529.88
2023-03-17T08:30:39.221Z,97528.31
2023-03-17T08:33:06.158Z,97528.41
2023-03-17T08:35:32.997Z,97525.72
2023-03-17T08:38:00.143Z,97518.06
2023-03-17T08:40:26.620Z,97500.53
2023-03-17T08:42:53.450Z,97503.47
2023-03-17T08:45:20.035Z,97510.25
2023-03-17T08:47:47.553Z,97517.84
2023-03-17T08:50:19.516Z,97523.50
2023-03-17T08:52:46.110Z,97546.13
2023-03-17T08:55:13.465Z,97537.72
2023-03-17T08:57:39.937Z,97522.88
2023-03-17T09:00:10.939Z,97528.25
2023-03-17T09:02:38.292Z,97534.56
2023-03-17T09:05:06.830Z,97517.13
2023-03-17T09:07:33.640Z,97521.63
2023-03-17T09:10:00.577Z,97514.50
2023-03-17T09:12:27.078Z,97521.72
2023-03-17T09:14:54.594Z,97510.28
2023-03-17T09:17:21.715Z,97518.13
2023-03-17T09:19:48.502Z,97512.13
2023-03-17T09:22:15.975Z,97513.31
2023-03-17T09:24:42.450Z,97507.66
2023-03-17T09:27:09.017Z,97519.25
2023-03-17T09:29:35.533Z,97512.41
2023-03-17T09:32:02.297Z,97523.25
2023-03-17T09:34:28.764Z,97519.91
2023-03-17T09:36:55.277Z,97527.38
2023-03-17T09:39:23.078Z,97524.13
2023-03-17T09:41:58.536Z,97520.66
2023-03-17T09:44:43.246Z,97520.84
2023-03-17T09:47:42.751Z,97509.47
2023-03-17T09:50:12.915Z,97513.66
2023-03-17T09:52:39.416Z,97520.66
2023-03-17T09:55:08.486Z,97519.34
2023-03-17T09:57:38.511Z,97525.47
2023-03-17T10:00:16.534Z,97530.03
2023-03-17T10:02:43.460Z,97521.78
2023-03-17T10:05:12.934Z,97525.84
2023-03-17T10:07:43.047Z,97525.28
2023-03-17T10:10:33.209Z,97515.38
2023-03-17T10:13:12.753Z,97525.66
2023-03-17T10:16:01.562Z,97522.38
2023-03-17T10:18:30.286Z,97513.25
2023-03-17T10:21:01.839Z,97523.91
2023-03-17T10:23:30.519Z,97514.31
2023-03-17T10:25:59.758Z,97521.59
2023-03-17T10:28:31.481Z,97513.88
2023-03-17T10:31:19.029Z,97515.47
2023-03-17T10:33:49.025Z,97516.25
2023-03-17T10:36:16.612Z,97522.88
2023-03-17T10:38:50.898Z,97512.28
2023-03-17T10:41:17.423Z,97507.28
2023-03-17T10:43:45.853Z,97498.78
2023-03-17T10:46:24.332Z,97518.00
2023-03-17T10:48:53.196Z,97503.78
2023-03-17T10:51:31.625Z,97502.19
2023-03-17T10:54:03.876Z,97513.38
2023-03-17T10:56:33.930Z,97516.47
2023-03-17T10:59:05.758Z,97526.59
2023-03-17T11:01:39.919Z,97505.47
2023-03-17T11:04:39.468Z,97498.72
2023-03-17T11:07:19.582Z,97505.09
2023-03-17T11:09:50.574Z,97492.78
2023-03-17T11:12:29.852Z,97484.84
2023-03-17T11:15:00.707Z,97471.25
2023-03-17T11:17:37.967Z,97481.22
2023-03-17T11:20:36.138Z,97466.88
2023-03-17T11:23:26.438Z,97482.03
2023-03-17T11:25:55.757Z,97480.81
2023-03-17T11:28:24.974Z,97496.41
2023-03-17T11:31:15.642Z,97489.63
2023-03-17T11:34:09.233Z,97488.84
2023-03-17T11:37:03.554Z,97500.44
2023-03-17T11:39:44.777Z,97489.25
2023-03-17T11:42:18.496Z,97484.44
2023-03-17T11:45:02.583Z,97482.84
2023-03-17T11:47:43.050Z,97475.63
2023-03-17T11:50:22.070Z,97464.81
2023-03-17T11:53:08.660Z,97462.47
2023-03-17T11:55:47.779Z,97463.66
2023-03-17T11:58:41.497Z,97450.81
2023-03-17T12:01:09.181Z,97466.72
2023-03-17T12:03:46.165Z,97463.06
2023-03-17T12:06:23.421Z,97444.38
2023-03-17T12:09:10.081Z,97447.69
2023-03-17T12:11:39.107Z,97442.59
2023-03-17T12:14:07.560Z,97460.91
2023-03-17T12:17:10.968Z,97446.38
2023-03-17T12:19:49.090Z,97454.03
2023-03-17T12:22:28.444Z,97462.75
2023-03-17T12:25:25.562Z,97456.81
2023-03-17T12:28:13.697Z,97456.34
2023-03-17T12:30:49.330Z,97457.50
2023-03-17T12:33:27.826Z,97457.16
2023-03-17T12:35:54.626Z,97465.13
2023-03-17T12:38:43.233Z,97455.53
2023-03-17T12:41:49.040Z,97466.72
2023-03-17T12:44:40.311Z,97467.22
2023-03-17T12:47:25.169Z,97471.59
2023-03-17T12:49:56.926Z,97457.22
2023-03-17T12:52:47.368Z,97468.03
2023-03-17T12:55:15.898Z,97466.06
2023-03-17T12:57:47.037Z,97454.91
2023-03-17T13:00:25.245Z,97466.91
2023-03-17T13:03:07.136Z,97458.50
2023-03-17T13:05:34.215Z,97458.13
2023-03-17T13:08:01.569Z,97463.69
2023-03-17T13:10:43.755Z,97456.88
2023-03-17T13:13:36.366Z,97458.81
2023-03-17T13:16:04.444Z,97443.38
2023-03-17T13:18:34.049Z,97464.50
2023-03-17T13:21:00.860Z,97436.19
2023-03-17T13:23:40.036Z,97453.38
2023-03-17T13:26:06.906Z,97458.13
2023-03-17T13:28:36.793Z,97450.56
2023-03-17T13:31:31.447Z,97434.19
2023-03-17T13:34:12.929Z,97429.00
2023-03-17T13:37:01.343Z,97441.34
2023-03-17T13:39:55.521Z,97422.63
2023-03-17T13:42:29.446Z,97412.66
2023-03-17T13:45:07.937Z,97417.44
2023-03-17T13:47:36.564Z,97417.44
2023-03-17T13:50:13.352Z,97410.69
2023-03-17T13:52:39.756Z,97419.84
2023-03-17T13:55:18.235Z,97415.84
2023-03-17T13:58:12.151Z,97417.84
2023-03-17T14:00:40.223Z,97409.88
2023-03-17T14:03:17.484Z,97410.69
2023-03-17T14:05:47.413Z,97399.13
2023-03-17T14:08:32.562Z,97401.50
2023-03-17T14:11:04.392Z,97418.25
2023-03-17T14:13:42.122Z,97412.69
2023-03-17T14:16:17.116Z,97411.06
2023-03-17T14:18:49.652Z,97410.69
2023-03-17T14:21:32.189Z,97395.94
2023-03-17T14:24:02.613Z,97404.28
2023-03-17T14:26:30.725Z,97402.69
2023-03-17T14:29:01.105Z,97397.13
2023-03-17T14:31:28.133Z,97400.69
2023-03-17T14:33:55.946Z,97382.78
2023-03-17T14:36:22.899Z,97399.13
2023-03-17T14:38:51.183Z,97388.75
2023-03-17T14:41:18.722Z,97390.31
2023-03-17T14:43:45.302Z,97385.53
2023-03-17T14:46:17.531Z,97382.75
2023-03-17T14:48:46.493Z,97392.31
2023-03-17T14:51:37.724Z,97382.38
2023-03-17T14:54:33.710Z,97393.53
2023-03-17T14:57:06.364Z,97382.34
2023-03-17T14:59:36.435Z,97380.34
2023-03-17T15:02:27.969Z,97393.13
2023-03-17T15:05:19.324Z,97376.78
2023-03-17T15:07:46.062Z,97378.38
2023-03-17T15:10:20.405Z,97383.97
2023-03-17T15:12:46.887Z,97374.00
2023-03-17T15:15:24.110Z,97385.94
2023-03-17T15:17:51.601Z,97401.50
2023-03-17T15:20:18.120Z,97399.47
2023-03-17T15:22:48.722Z,97382.34
2023-03-17T15:25:37.714Z,97390.69
2023-03-17T15:28:23.945Z,97391.88
2023-03-17T15:30:51.594Z,97377.56
2023-03-17T15:33:24.711Z,97384.72
2023-03-17T15:35:51.553Z,97394.28
2023-03-17T15:38:18.084Z,97385.91
2023-03-17T15:40:44.632Z,97375.94
2023-03-17T15:43:15.376Z,97376.31
2023-03-17T15:45:43.731Z,97366.38
2023-03-17T15:48:20.225Z,97369.16
2023-03-17T15:50:47.203Z,97366.34
2023-03-17T15:53:13.865Z,97359.59
2023-03-17T15:55:40.367Z,97371.53
2023-03-17T15:58:06.856Z,97368.72
2023-03-17T16:00:34.015Z,97371.94
2023-03-17T16:03:13.043Z,97372.31
2023-03-17T16:05:39.609Z,97373.06
2023-03-17T16:08:06.819Z,97356.34
2023-03-17T16:10:33.780Z,97374.22
2023-03-17T16:13:00.455Z,97359.56
2023-03-17T16:15:31.643Z,97360.31
2023-03-17T16:17:59.212Z,97371.84
2023-03-17T16:20:34.273Z,97355.09
2023-03-17T16:23:19.519Z,97362.25
2023-03-17T16:25:46.411Z,97367.41
2023-03-17T16:28:26.199Z,97371.75
2023-03-17T16:30:54.262Z,97366.22
2023-03-17T16:33:27.431Z,97376.53
2023-03-17T16:35:55.518Z,97380.09
2023-03-17T16:38:24.010Z,97363.34
2023-03-17T16:40:51.937Z,97373.66
2023-03-17T16:43:30.623Z,97370.06
2023-03-17T16:46:01.039Z,97368.47
2023-03-17T16:48:27.528Z,97370.81
2023-03-17T16:50:54.034Z,97373.63
2023-03-17T16:53:20.728Z,97368.06
2023-03-17T16:55:47.226Z,97375.63
2023-03-17T16:58:21.636Z,97377.16
2023-03-17T17:00:48.599Z,97387.88
2023-03-17T17:03:15.355Z,97394.19
2023-03-17T17:05:42.130Z,97395.41
2023-03-17T17:08:08.859Z,97401.00
2023-03-17T17:10:35.513Z,97407.34
2023-03-17T17:13:02.631Z,97405.72
2023-03-17T17:15:29.242Z,97408.50
2023-03-17T17:17:57.681Z,97415.25
2023-03-17T17:20:31.064Z,97426.34
2023-03-17T17:22:58.517Z,97432.28
2023-03-17T17:25:25.466Z,97442.16
2023-03-17T17:27:52.246Z,97443.75
2023-03-17T17:30:20.216Z,97454.47
2023-03-17T17:32:47.037Z,97456.78
2023-03-17T17:35:14.251Z,97449.69
2023-03-17T17:37:40.863Z,97452.00
2023-03-17T17:40:08.460Z,97440.47
2023-03-17T17:42:35.304Z,97433.28
2023-03-17T17:45:01.786Z,97428.47
2023-03-17T17:47:32.136Z,97438.38
2023-03-17T17:49:58.933Z,97434.78
2023-03-17T17:52:25.495Z,97433.94
2023-03-17T17:54:52.260Z,97437.47
2023-03-17T17:57:18.794Z,97437.91
2023-03-17T17:59:45.552Z,97439.50
2023-03-17T18:02:12.532Z,97445.84
2023-03-17T18:04:39.134Z,97446.66
2023-03-17T18:07:05.689Z,97442.66
2023-03-17T18:09:32.522Z,97444.28
2023-03-17T18:11:59.048Z,97454.53
2023-03-17T18:14:25.697Z,97448.59
2023-03-17T18:16:52.249Z,97439.44
2023-03-17T18:19:18.799Z,97454.59
2023-03-17T18:21:46.443Z,97440.69
2023-03-17T18:24:13.386Z,97440.25
2023-03-17T18:26:39.855Z,97444.22
2023-03-17T18:29:06.821Z,97446.94
2023-03-17T18:31:44.419Z,97443.78
2023-03-17T18:34:24.679Z,97435.06
2023-03-17T18:36:51.134Z,97446.59
2023-03-17T18:39:17.812Z,97429.13
2023-03-17T18:41:44.321Z,97429.56
2023-03-17T18:44:11.051Z,97414.09
2023-03-17T18:46:37.666Z,97412.09
2023-03-17T18:49:05.250Z,97430.78
2023-03-17T18:51:31.881Z,97425.97
2023-03-17T18:53:58.359Z,97412.09
2023-03-17T18:56:28.940Z,97430.69
2023-03-17T18:58:56.288Z,97427.09
2023-03-17T19:01:22.879Z,97432.06
2023-03-17T19:03:49.687Z,97424.84
2023-03-17T19:06:17.902Z,97431.03
2023-03-17T19:08:44.491Z,97430.59
2023-03-17T19:11:11.979Z,97436.41
2023-03-17T19:13:38.515Z,97426.97
2023-03-17T19:16:05.457Z,97416.63
2023-03-17T19:18:31.932Z,97440.22
2023-03-17T19:20:58.440Z,97423.63
2023-03-17T19:23:24.959Z,97421.69
2023-03-17T19:25:51.510Z,97447.19
2023-03-17T19:28:18.379Z,97424.31
2023-03-17T19:30:45.858Z,97438.28
2023-03-17T19:33:13.187Z,97431.09
2023-03-17T19:35:40.177Z,97420.00
2023-03-17T19:38:08.190Z,97414.06
2023-03-17T19:40:36.985Z,97416.84
2023-03-17T19:43:04.393Z,97420.84
2023-03-17T19:45:31.366Z,97412.13
2023-03-17T19:47:57.999Z,97407.38
2023-03-17T19:50:24.763Z,97409.72
2023-03-17T19:52:53.189Z,97412.47
2023-03-17T19:55:20.748Z,97414.06
2023-03-17T19:57:47.783Z,97410.88
2023-03-17T20:00:14.640Z,97401.34
2023-03-17T20:02:41.223Z,97409.69
2023-03-17T20:05:08.169Z,97408.75
2023-03-17T20:07:34.988Z,97413.97
2023-03-17T20:10:01.892Z,97423.53
2023-03-17T20:12:30.240Z,97429.47
2023-03-17T20:14:56.718Z,97425.94
2023-03-17T20:17:23.189Z,97414.94
2023-03-17T20:19:49.669Z,97415.75
2023-03-17T20:22:16.214Z,97420.94
2023-03-17T20:24:43.437Z,97416.13
2023-03-17T20:27:11.220Z,97410.06
2023-03-17T20:29:38.456Z,97420.47
2023-03-17T20:32:04.981Z,97414.09
2023-03-17T20:34:31.868Z,97407.75
2023-03-17T20:36:58.397Z,97409.72
2023-03-17T20:39:24.943Z,97406.09
2023-03-17T20:41:51.569Z,97399.75
2023-03-17T20:44:18.095Z,97401.78
2023-03-17T20:46:44.677Z,97407.00
2023-03-17T20:49:11.643Z,97401.00
2023-03-17T20:51:38.153Z,97406.28
2023-03-17T20:54:04.664Z,97404.63
2023-03-17T20:56:33.633Z,97397.38
2023-03-17T20:59:04.781Z,97393.38
2023-03-17T21:01:33.183Z,97396.91
2023-03-17T21:03:59.845Z,97397.72
2023-03-17T21:06:28.267Z,97394.84
2023-03-17T21:08:55.265Z,97398.91
2023-03-17T21:11:23.158Z,97406.09
2023-03-17T21:13:49.913Z,97410.44
2023-03-17T21:16:21.785Z,97421.97
2023-03-17T21:18:48.358Z,97412.00
2023-03-17T21:21:15.058Z,97408.75
2023-03-17T21:23:41.969Z,97410.72
2023-03-17T21:26:09.182Z,97416.25
2023-03-17T21:28:36.367Z,97414.69
2023-03-17T21:31:02.922Z,97419.81
2023-03-17T21:33:29.403Z,97427.34
2023-03-17T21:35:58.613Z,97427.28
2023-03-17T21:38:27.338Z,97418.88
2023-03-17T21:40:57.536Z,97427.53
2023-03-17T21:43:24.279Z,97429.13
2023-03-17T21:45:51.045Z,97430.66
2023-03-17T21:48:17.561Z,97426.66
2023-03-17T21:50:44.113Z,97444.03
2023-03-17T21:53:13.741Z,97443.66
2023-03-17T21:55:41.332Z,97454.28
2023-03-17T21:58:08.151Z,97457.41
2023-03-17T22:00:44.655Z,97459.47
2023-03-17T22:03:11.870Z,97457.06
2023-03-17T22:05:38.429Z,97458.03
2023-03-17T22:08:05.428Z,97468.34
2023-03-17T22:10:32.152Z,97474.75
2023-03-17T22:12:58.834Z,97468.41
2023-03-17T22:15:25.326Z,97465.63
2023-03-17T22:17:53.108Z,97458.09
2023-03-17T22:20:20.307Z,97462.00
2023-03-17T22:22:46.783Z,97468.41
2023-03-17T22:25:13.306Z,97464.69
2023-03-17T22:27:40.076Z,97462.41
2023-03-17T22:30:06.818Z,97472.66
2023-03-17T22:32:33.350Z,97472.66
2023-03-17T22:35:00.149Z,97469.06
2023-03-17T22:37:27.828Z,97473.31
2023-03-17T22:39:54.340Z,97474.63
2023-03-17T22:42:21.031Z,97471.44
2023-03-17T22:44:47.505Z,97467.53
2023-03-17T22:47:13.960Z,97467.88
2023-03-17T22:49:40.907Z,97468.09
2023-03-17T22:52:08.602Z,97467.25
2023-03-17T22:54:35.093Z,97462.81
2023-03-17T22:57:01.581Z,97475.34
2023-03-17T22:59:28.051Z,97465.31
2023-03-17T23:01:54.517Z,97465.50
2023-03-17T23:04:21.282Z,97470.31
2023-03-17T23:06:48.789Z,97466.41
2023-03-17T23:09:15.534Z,97460.50
2023-03-17T23:11:42.736Z,97465.72
2023-03-17T23:14:09.216Z,97463.03
2023-03-17T23:16:37.602Z,97462.25
2023-03-17T23:19:04.759Z,97469.19
2023-03-17T23:21:33.854Z,97457.59
2023-03-17T23:24:00.613Z,97468.66
2023-03-17T23:26:27.460Z,97464.75
2023-03-17T23:28:53.964Z,97465.53
2023-03-17T23:31:22.302Z,97458.97
2023-03-17T23:33:49.145Z,97467.50
2023-03-17T23:36:16.243Z,97467.28
2023-03-17T23:38:42.881Z,97465.25
2023-03-17T23:41:09.724Z,97461.25
2023-03-17T23:43:37.363Z,97454.72
2023-03-17T23:46:04.737Z,97458.28
2023-03-17T23:48:31.279Z,97466.84
2023-03-17T23:50:57.785Z,97468.06
2023-03-17T23:53:24.596Z,97460.22
2023-03-17T23:55:51.418Z,97470.28
2023-03-17T23:58:18.082Z,97472.59
